Time;durP1;ratioP1;P1;durP2;ratioP2;P2;SDS_P1;SDS_P2;PMS_P1;PMS_P2;Temp;Humidity;BMP_temperature;BMP_pressure;BME280_temperature;BME280_humidity;BME280_pressure;Samples;Min_cycle;Max_cycle;Signal;HPM_P1;HPM_P2
2020/12/02 00:00:59;;;;;;;40.42;20.23;;;2.30;82.40;;;-0.01;85.75;96039.47;5007691;28;20034;-67
2020/12/02 00:03:33;;;;;;;45.05;22.17;;;2.40;82.30;;;-0.02;85.94;96046.41;4985254;28;20107;-67
2020/12/02 00:05:59;;;;;;;43.25;21.60;;;2.40;82.20;;;0.00;85.07;96041.13;5007594;28;20077;-69
2020/12/02 00:08:35;;;;;;;43.88;21.27;;;2.40;82.10;;;0.01;85.64;96034.19;5007784;28;20517;-67
2020/12/02 00:11:09;;;;;;;45.35;23.08;;;2.40;82.10;;;0.02;85.59;96038.41;4995416;28;20045;-67
2020/12/02 00:13:40;;;;;;;43.33;22.08;;;2.40;81.80;;;0.01;85.38;96036.78;4988688;28;20128;-67
2020/12/02 00:16:06;;;;;;;41.80;22.25;;;2.40;81.40;;;0.02;85.25;96043.59;5021460;28;20056;-67
2020/12/02 00:18:34;;;;;;;45.80;22.35;;;2.40;81.30;;;0.02;84.73;96043.59;4990837;28;20038;-67
2020/12/02 00:21:01;;;;;;;48.47;23.52;;;2.40;81.20;;;-0.01;84.75;96044.63;5007976;28;20038;-67
2020/12/02 00:23:26;;;;;;;44.42;23.40;;;2.40;81.00;;;-0.03;84.96;96044.75;4991395;28;20042;-67
2020/12/02 00:25:52;;;;;;;51.92;24.70;;;2.40;81.10;;;-0.05;84.81;96038.06;4981953;28;20033;-67
2020/12/02 00:28:18;;;;;;;52.72;24.65;;;2.40;80.90;;;-0.08;84.70;96049.50;4988081;28;20042;-67
2020/12/02 00:30:44;;;;;;;50.30;24.30;;;2.30;80.90;;;-0.12;85.15;96042.94;4992624;28;20084;-67
2020/12/02 00:33:23;;;;;;;50.95;24.13;;;2.30;81.00;;;-0.18;85.54;96040.03;4999413;28;20428;-67
2020/12/02 00:35:49;;;;;;;51.10;23.15;;;2.10;81.30;;;-0.21;84.91;96046.28;4986226;28;20046;-67
2020/12/02 00:38:15;;;;;;;50.13;24.35;;;2.10;81.60;;;-0.26;85.05;96040.63;4987478;28;20045;-67
2020/12/02 00:40:44;;;;;;;54.03;25.50;;;2.10;81.70;;;-0.27;85.13;96044.16;5009018;28;20042;-68
2020/12/02 00:43:11;;;;;;;49.20;23.63;;;2.10;81.50;;;-0.26;84.94;96045.81;5016059;28;20091;-67
2020/12/02 00:45:37;;;;;;;45.15;22.05;;;2.10;81.30;;;-0.29;84.76;96047.81;4992728;28;20072;-67
2020/12/02 00:48:03;;;;;;;46.60;23.60;;;2.10;81.10;;;-0.36;84.96;96050.09;5010810;28;20121;-67
2020/12/02 00:50:29;;;;;;;47.05;22.88;;;2.00;81.10;;;-0.36;84.67;96037.16;4985787;28;20036;-66
2020/12/02 00:53:11;;;;;;;48.97;22.95;;;2.00;80.90;;;-0.39;84.82;96045.16;4985770;28;20038;-67
2020/12/02 00:55:36;;;;;;;44.10;22.63;;;1.90;80.90;;;-0.41;84.65;96053.06;4995119;28;20084;-67
2020/12/02 00:58:03;;;;;;;48.10;24.23;;;1.90;80.80;;;-0.43;84.98;96048.94;5010505;28;20036;-68
2020/12/02 01:00:31;;;;;;;50.92;24.02;;;1.90;80.80;;;-0.45;84.51;96046.50;4992474;28;20087;-68
2020/12/02 01:03:26;;;;;;;46.15;23.63;;;1.90;80.80;;;-0.48;84.99;96044.13;4974382;28;20041;-68
2020/12/02 01:05:52;;;;;;;50.60;23.80;;;1.80;81.00;;;-0.49;84.56;96041.66;5009871;28;20066;-68
2020/12/02 01:08:34;;;;;;;47.58;22.75;;;1.80;81.00;;;-0.51;84.37;96046.13;5007748;28;20096;-68
2020/12/02 01:11:21;;;;;;;51.33;23.60;;;1.80;81.10;;;-0.57;84.76;96038.88;5006596;28;20095;-67
2020/12/02 01:13:50;;;;;;;47.42;23.77;;;1.70;81.40;;;-0.59;84.92;96048.53;4977742;28;20057;-67
2020/12/02 01:16:20;;;;;;;53.65;23.38;;;1.60;81.60;;;-0.59;84.67;96048.53;4995665;28;20033;-67
2020/12/02 01:18:46;;;;;;;53.67;25.65;;;1.70;81.70;;;-0.60;84.70;96044.28;5011525;28;20046;-68
2020/12/02 01:21:16;;;;;;;52.88;24.13;;;1.70;81.70;;;-0.59;85.03;96043.34;5006143;28;20050;-68
2020/12/02 01:23:47;;;;;;;49.63;24.27;;;1.70;81.70;;;-0.65;84.87;96035.16;4995875;28;20069;-67
2020/12/02 01:26:15;;;;;;;;;;;1.60;81.70;;;-0.67;85.18;96047.38;5001068;28;20285;-68
2020/12/02 01:28:40;;;;;;;47.70;22.30;;;1.60;81.70;;;-0.68;84.82;96040.56;5004548;28;20004;-67
2020/12/02 01:31:06;;;;;;;53.08;23.90;;;1.60;81.90;;;-0.70;84.64;96039.84;4996882;28;20033;-68
2020/12/02 01:33:32;;;;;;;50.30;22.58;;;1.60;81.90;;;-0.71;84.62;96039.97;5009863;28;20061;-67
2020/12/02 01:35:58;;;;;;;53.08;23.40;;;1.60;82.00;;;-0.72;84.59;96036.56;5006322;28;20531;-68
2020/12/02 01:38:36;;;;;;;54.78;25.13;;;1.50;82.20;;;-0.73;85.25;96031.53;5016112;28;20713;-68
2020/12/02 01:41:02;;;;;;;48.58;24.05;;;1.60;82.30;;;-0.74;84.85;96030.69;5005005;28;20517;-67
2020/12/02 01:43:27;;;;;;;56.13;25.75;;;1.50;82.30;;;-0.74;85.11;96029.88;4981800;28;20034;-68
2020/12/02 01:45:58;;;;;;;55.50;24.45;;;1.50;82.40;;;-0.77;85.27;96030.94;4998589;28;20096;-68
2020/12/02 01:48:55;;;;;;;52.72;24.40;;;1.50;82.60;;;-0.79;85.18;96027.66;4971817;28;20038;-67
2020/12/02 01:51:52;;;;;;;51.50;24.52;;;1.50;82.60;;;-0.79;85.85;96027.66;5003034;28;20045;-67
2020/12/02 01:54:42;;;;;;;54.50;24.90;;;1.50;82.70;;;-0.80;85.62;96026.03;5026216;28;20116;-68
2020/12/02 01:57:22;;;;;;;51.70;23.25;;;1.50;82.50;;;-0.80;85.54;96026.03;4991210;28;20493;-67
2020/12/02 02:00:12;;;;;;;51.58;24.00;;;1.50;82.20;;;-0.81;85.73;96020.97;5020313;28;20140;-67
2020/12/02 02:03:04;;;;;;;57.13;24.75;;;1.40;82.10;;;-0.82;85.50;96022.75;4992567;28;20056;-67
2020/12/02 02:06:06;;;;;;;54.15;24.88;;;1.40;82.20;;;-0.84;85.39;96018.66;5010220;28;20042;-67
2020/12/02 02:08:33;;;;;;;52.30;23.83;;;1.40;82.20;;;-0.88;85.12;96012.91;4988842;28;20034;-67
2020/12/02 02:11:01;;;;;;;53.67;23.40;;;1.40;82.40;;;-0.88;84.98;96012.91;4975316;28;20046;-67
2020/12/02 02:13:57;;;;;;;48.35;21.77;;;1.40;82.20;;;-0.94;85.37;96009.03;4996623;28;20034;-68
2020/12/02 02:16:29;;;;;;;44.15;20.27;;;1.30;81.90;;;-0.96;85.03;96003.16;5019952;28;20038;-69
2020/12/02 02:18:54;;;;;;;48.38;21.05;;;1.30;81.90;;;-1.00;84.52;96006.94;5005213;28;20112;-68
2020/12/02 02:21:27;;;;;;;45.05;21.58;;;1.20;81.80;;;-1.03;84.61;96004.59;5009395;28;20489;-68
2020/12/02 02:23:53;;;;;;;36.83;18.83;;;1.20;82.00;;;-1.07;84.61;96012.72;4986111;28;20110;-69
2020/12/02 02:26:30;;;;;;;29.38;15.93;;;1.10;81.40;;;-1.09;84.25;96014.59;4997188;28;20034;-68
2020/12/02 02:29:09;;;;;;;29.27;15.63;;;1.10;81.00;;;-1.12;84.60;96015.66;5001631;28;20038;-68
2020/12/02 02:31:59;;;;;;;34.40;15.98;;;1.10;80.60;;;-1.18;84.00;96016.09;5013099;28;20103;-68
2020/12/02 02:34:26;;;;;;;30.88;16.73;;;1.00;80.80;;;-1.24;84.43;96020.00;4994186;28;20535;-68
2020/12/02 02:36:53;;;;;;;30.23;16.33;;;0.90;80.80;;;-1.26;83.91;96021.88;4975758;28;20531;-68
2020/12/02 02:39:18;;;;;;;32.60;16.10;;;0.90;80.90;;;-1.30;84.03;96011.91;4989250;28;20038;-68
2020/12/02 02:41:44;;;;;;;32.30;16.02;;;0.90;80.80;;;-1.35;83.90;96007.13;4997412;28;20611;-68
2020/12/02 02:44:11;;;;;;;34.90;17.75;;;0.80;80.70;;;-1.38;84.18;96017.63;5012728;28;20390;-68
2020/12/02 02:46:37;;;;;;;31.95;15.75;;;0.80;80.70;;;-1.37;83.83;96021.84;5000358;28;20528;-68
2020/12/02 02:49:03;;;;;;;30.60;16.15;;;0.90;80.60;;;-1.39;84.25;96013.41;4973943;28;20124;-68
2020/12/02 02:51:29;;;;;;;36.00;17.42;;;0.90;80.60;;;-1.38;84.16;96009.91;4986777;28;20042;-68
2020/12/02 02:53:55;;;;;;;28.85;15.80;;;0.90;80.40;;;-1.40;83.74;96004.03;5018525;28;20108;-68
2020/12/02 02:56:21;;;;;;;34.88;16.52;;;0.90;80.10;;;-1.42;83.53;96003.34;5006676;28;20073;-68
2020/12/02 02:58:46;;;;;;;34.03;16.77;;;0.80;79.80;;;-1.44;83.48;96009.56;4987929;28;20466;-68
2020/12/02 03:01:12;;;;;;;36.40;16.90;;;0.80;79.90;;;-1.47;83.73;96007.22;5014433;28;20049;-68
2020/12/02 03:03:38;;;;;;;35.28;17.23;;;0.80;79.90;;;-1.48;83.64;96011.56;4972922;28;20665;-68
2020/12/02 03:06:04;;;;;;;37.15;17.58;;;0.80;80.10;;;-1.48;83.51;96015.91;4986375;28;20042;-68
2020/12/02 03:08:30;;;;;;;34.72;17.52;;;0.80;80.00;;;-1.49;83.82;96012.50;5005899;28;20116;-69
2020/12/02 03:10:57;;;;;;;40.63;17.52;;;0.80;79.90;;;-1.51;83.53;96014.38;5003500;28;20125;-68
2020/12/02 03:13:50;;;;;;;38.55;18.70;;;0.80;79.90;;;-1.55;83.69;96018.94;4999281;28;20047;-68
2020/12/02 03:16:21;;;;;;;35.38;17.98;;;0.70;80.10;;;-1.54;83.84;96014.63;4977886;28;20631;-68
2020/12/02 03:18:47;;;;;;;;;;;0.80;80.10;;;-1.58;83.60;96008.06;5023120;28;20046;-68
2020/12/02 03:21:14;;;;;;;43.78;19.08;;;0.70;80.10;;;-1.61;83.65;96013.41;4996672;28;20399;-68
2020/12/02 03:23:40;;;;;;;44.05;20.23;;;0.70;80.30;;;-1.63;83.97;96023.84;4988916;28;20044;-68
2020/12/02 03:26:06;;;;;;;47.30;20.27;;;0.70;80.60;;;-1.66;83.96;96020.69;4973274;28;20034;-68
2020/12/02 03:28:32;;;;;;;44.67;21.48;;;0.60;80.70;;;-1.67;83.92;96016.47;5007924;28;20038;-68
2020/12/02 03:31:00;;;;;;;54.30;22.27;;;0.60;80.70;;;-1.70;83.77;96014.94;5011988;28;20045;-68
2020/12/02 03:33:26;;;;;;;47.90;21.17;;;0.60;80.90;;;-1.69;83.88;96019.16;4992792;28;20045;-68
2020/12/02 03:35:51;;;;;;;52.75;22.27;;;0.60;80.90;;;-1.71;84.09;96012.50;4992000;28;20038;-68
2020/12/02 03:38:17;;;;;;;50.15;21.98;;;0.60;80.80;;;-1.70;84.17;96011.53;4974167;28;20100;-68
2020/12/02 03:40:43;;;;;;;51.85;22.25;;;0.60;80.90;;;-1.72;84.05;96016.00;4991979;28;20033;-68
2020/12/02 03:43:09;;;;;;;54.90;24.10;;;0.60;80.90;;;-1.72;84.11;96013.41;5022259;28;20038;-67
2020/12/02 03:45:40;;;;;;;52.60;23.27;;;0.60;81.10;;;-1.75;84.17;96013.66;5027939;28;20088;-67
2020/12/02 03:48:07;;;;;;;57.67;23.58;;;0.50;81.20;;;-1.77;84.27;96005.22;5025987;28;20029;-68
2020/12/02 03:50:33;;;;;;;50.47;22.95;;;0.50;81.40;;;-1.78;84.30;96006.16;5033953;28;20037;-67
2020/12/02 03:52:58;;;;;;;57.35;24.27;;;0.50;81.60;;;-1.79;83.80;96009.69;5022940;28;20037;-68
2020/12/02 03:55:24;;;;;;;54.03;24.50;;;0.40;81.60;;;-1.81;84.35;96008.94;5011196;28;21842;-67
2020/12/02 03:57:50;;;;;;;58.00;24.45;;;0.50;81.70;;;-1.83;83.96;96008.25;5021203;28;20642;-68
2020/12/02 04:00:16;;;;;;;53.47;23.02;;;0.40;81.80;;;-1.87;84.22;96005.91;5007390;28;20038;-68
2020/12/02 04:02:41;;;;;;;56.88;23.60;;;0.40;81.80;;;-1.89;84.16;96002.63;5022743;28;20045;-67
2020/12/02 04:05:07;;;;;;;59.30;24.35;;;0.40;81.90;;;-1.91;84.26;96003.66;5026650;28;20067;-68
2020/12/02 04:07:33;;;;;;;58.72;24.08;;;0.40;82.00;;;-1.92;84.35;96005.44;4995002;28;20029;-68
2020/12/02 04:09:59;;;;;;;57.97;23.42;;;0.30;82.00;;;-1.91;84.64;96001.91;4994928;28;20057;-67
2020/12/02 04:12:24;;;;;;;57.65;25.23;;;0.40;82.10;;;-1.90;84.30;96008.72;4978685;28;20120;-68
2020/12/02 04:14:50;;;;;;;59.25;24.27;;;0.40;82.00;;;-1.90;84.04;95998.41;5016968;28;20038;-67
2020/12/02 04:17:16;;;;;;;60.22;24.48;;;0.40;82.00;;;-1.88;84.65;96009.41;5007516;28;20049;-67
2020/12/02 04:19:42;;;;;;;58.50;24.92;;;0.50;81.90;;;-1.89;84.37;95994.06;5015062;28;20045;-68
2020/12/02 04:22:07;;;;;;;58.53;24.85;;;0.40;82.00;;;-1.89;84.57;95994.88;4996681;28;20101;-68
2020/12/02 04:24:33;;;;;;;54.55;23.48;;;0.50;82.10;;;-1.89;84.76;95994.88;5023698;28;20111;-68
2020/12/02 04:26:59;;;;;;;46.20;20.45;;;0.40;82.20;;;-1.91;84.43;95990.78;5022895;28;20509;-68
2020/12/02 04:29:24;;;;;;;43.30;18.50;;;0.40;82.10;;;-1.93;84.29;95984.91;5009991;28;20033;-68
2020/12/02 04:31:50;;;;;;;38.67;17.73;;;0.40;81.80;;;-1.95;84.55;95985.03;4988005;28;20077;-68
2020/12/02 04:34:16;;;;;;;50.17;20.17;;;0.40;81.70;;;-1.96;84.31;95980.81;4986625;28;20113;-68
2020/12/02 04:36:48;;;;;;;40.95;17.80;;;0.30;81.50;;;-1.98;84.51;95980.13;5010823;28;20152;-68
2020/12/02 04:39:14;;;;;;;42.88;18.60;;;0.20;81.50;;;-1.99;84.52;95972.50;5006250;28;20045;-68
2020/12/02 04:41:39;;;;;;;46.03;18.50;;;0.20;81.50;;;-2.01;84.00;95972.63;5013804;28;20049;-68
2020/12/02 04:44:05;;;;;;;45.55;18.23;;;0.20;81.50;;;-2.00;84.03;95976.84;5007448;28;20034;-68
2020/12/02 04:46:33;;;;;;;46.90;19.05;;;0.30;81.60;;;-2.00;84.17;95976.03;4994051;28;20038;-67
2020/12/02 04:49:26;;;;;;;46.78;19.45;;;0.30;81.30;;;-2.00;84.71;95976.84;5025808;28;21903;-68
2020/12/02 04:52:04;;;;;;;47.90;19.65;;;0.30;81.30;;;-2.02;85.01;95975.31;5016814;28;20151;-68
2020/12/02 04:54:30;;;;;;;45.72;19.30;;;0.20;81.40;;;-2.03;84.30;95971.91;4989783;28;20049;-68
2020/12/02 04:56:56;;;;;;;46.72;19.42;;;0.20;81.40;;;-2.04;84.31;95970.25;4990328;28;20417;-68
2020/12/02 04:59:37;;;;;;;43.63;17.60;;;0.20;81.20;;;-2.06;84.04;95961.81;5009790;28;20472;-68
2020/12/02 05:02:03;;;;;;;44.38;18.17;;;0.10;80.90;;;-2.07;83.87;95962.75;4994461;28;20049;-68
2020/12/02 05:04:29;;;;;;;46.22;19.10;;;0.20;80.90;;;-2.06;83.60;95961.81;4987550;28;20485;-67
2020/12/02 05:07:06;;;;;;;45.03;17.50;;;0.20;80.40;;;-2.08;83.75;95963.69;4997126;28;20120;-68
2020/12/02 05:09:34;;;;;;;46.10;18.63;;;0.20;80.40;;;-2.09;83.84;95959.47;5007147;28;20697;-70
2020/12/02 05:12:19;;;;;;;48.47;18.50;;;0.10;80.40;;;-2.09;83.99;95962.03;5006623;28;20632;-68
2020/12/02 05:14:45;;;;;;;45.70;18.42;;;0.10;80.60;;;-2.07;83.94;95957.59;4990887;28;20041;-68
2020/12/02 05:17:22;;;;;;;44.60;19.33;;;0.20;80.60;;;-2.07;83.98;95957.59;5022695;28;20038;-70
2020/12/02 05:20:13;;;;;;;44.88;18.90;;;0.20;80.30;;;-2.07;83.51;95965.31;5006768;28;20651;-70
2020/12/02 05:22:44;;;;;;;43.45;19.45;;;0.20;80.30;;;-2.07;83.64;95965.31;5006082;28;20041;-68
2020/12/02 05:25:33;;;;;;;42.00;18.02;;;0.20;80.30;;;-2.06;83.74;95956.66;5006427;28;20465;-68
2020/12/02 05:28:28;;;;;;;50.63;18.80;;;0.20;80.00;;;-2.04;83.46;95965.09;5008218;28;20420;-68
2020/12/02 05:31:28;;;;;;;44.05;18.77;;;0.30;79.70;;;-2.03;83.71;95966.75;4990724;28;20054;-68
2020/12/02 05:33:54;;;;;;;50.45;19.88;;;0.40;80.00;;;-2.02;83.38;95960.66;4997899;28;20026;-68
2020/12/02 05:36:28;;;;;;;44.38;19.00;;;0.30;79.90;;;-2.02;83.03;95959.84;4972960;28;20048;-68
2020/12/02 05:39:00;;;;;;;49.25;21.40;;;0.30;79.80;;;-2.02;83.41;95967.59;4975148;28;20042;-68
2020/12/02 05:41:26;;;;;;;51.15;20.52;;;0.30;79.80;;;-2.02;83.28;95973.56;5003164;28;20034;-68
2020/12/02 05:44:05;;;;;;;47.33;20.95;;;0.30;79.90;;;-2.01;83.74;95970.03;5006644;28;20072;-68
2020/12/02 05:46:43;;;;;;;49.83;20.23;;;0.30;79.90;;;-2.02;83.41;95970.97;4991110;28;20033;-68
2020/12/02 05:49:12;;;;;;;51.50;20.80;;;0.30;80.10;;;-2.02;83.54;95968.41;4974316;28;20041;-68
2020/12/02 05:51:38;;;;;;;53.03;21.52;;;0.30;80.20;;;-2.03;83.26;95966.75;4984420;28;20148;-68
2020/12/02 05:54:12;;;;;;;50.17;21.63;;;0.20;80.10;;;-2.04;83.71;95965.09;4990840;28;20041;-68
2020/12/02 05:56:38;;;;;;;55.35;21.42;;;0.30;80.10;;;-2.05;83.30;95963.44;4992300;28;20045;-68
2020/12/02 05:59:05;;;;;;;55.15;22.55;;;0.20;80.20;;;-2.04;83.31;95959.13;4978226;28;20041;-68
2020/12/02 06:01:31;;;;;;;55.33;22.63;;;0.20;80.20;;;-2.04;83.30;95970.25;4991670;28;20041;-68
2020/12/02 06:03:57;;;;;;;51.15;21.65;;;0.20;80.30;;;-2.05;83.44;95963.44;4992864;28;20041;-68
2020/12/02 06:06:23;;;;;;;54.28;21.80;;;0.20;80.10;;;-2.04;83.64;95969.44;4985288;28;20639;-68
2020/12/02 06:08:50;;;;;;;52.92;21.73;;;0.30;80.20;;;-2.06;83.13;95971.31;5012236;28;20087;-68
2020/12/02 06:11:16;;;;;;;53.83;21.85;;;0.20;79.90;;;-2.08;83.50;95963.69;4969266;28;20034;-68
2020/12/02 06:14:02;;;;;;;53.22;22.15;;;0.20;79.90;;;-2.06;83.32;95964.38;4999565;28;20037;-70
2020/12/02 06:16:41;;;;;;;57.33;22.73;;;0.30;79.60;;;-2.04;82.90;95969.44;4997098;28;20121;-69
2020/12/02 06:19:15;;;;;;;54.47;22.73;;;0.30;79.30;;;-2.03;83.24;95971.09;4982524;28;20394;-67
2020/12/02 06:22:01;;;;;;;54.53;22.13;;;0.30;79.10;;;-2.05;82.89;95972.94;5025116;28;20087;-71
2020/12/02 06:24:47;;;;;;;50.90;21.70;;;0.30;79.00;;;-2.07;83.00;95970.47;4999446;28;20030;-69
2020/12/02 06:27:15;;;;;;;53.35;21.90;;;0.30;79.50;;;-2.07;83.25;95970.47;4989872;28;20084;-70
2020/12/02 06:29:42;;;;;;;56.80;23.65;;;0.20;79.90;;;-2.06;83.49;95966.16;5007632;28;20085;-70
2020/12/02 06:32:22;;;;;;;54.30;23.70;;;0.30;79.80;;;-2.06;83.44;95964.38;5004822;28;20096;-68
2020/12/02 06:34:48;;;;;;;56.97;24.38;;;0.30;79.70;;;-2.04;83.13;95964.28;5017967;28;20037;-69
2020/12/02 06:37:22;;;;;;;67.50;28.38;;;0.30;79.50;;;-2.03;83.12;95966.75;5004637;28;20037;-67
2020/12/02 06:39:53;;;;;;;56.83;25.08;;;0.30;79.60;;;-2.03;83.12;95969.34;5033263;28;20178;-67
2020/12/02 06:42:36;;;;;;;58.08;26.58;;;0.30;79.40;;;-2.02;82.79;95973.56;5011080;28;20042;-66
2020/12/02 06:45:24;;;;;;;57.20;24.80;;;0.30;79.30;;;-2.02;82.48;95981.28;5004874;28;20414;-67
2020/12/02 06:47:49;;;;;;;53.95;23.92;;;0.30;79.00;;;-2.04;82.30;95975.41;5008906;28;20469;-67
2020/12/02 06:50:24;;;;;;;55.45;22.90;;;0.30;78.10;;;-2.05;82.17;95978.91;5009216;28;20042;-67
2020/12/02 06:52:50;;;;;;;52.38;23.30;;;0.20;77.70;;;-2.08;82.35;95974.00;5032738;28;20041;-67
2020/12/02 06:55:28;;;;;;;52.25;23.75;;;0.20;77.50;;;-2.09;81.53;95976.69;4978478;28;20716;-67
2020/12/02 06:58:01;;;;;;;47.05;22.00;;;0.20;77.70;;;-2.10;81.33;95975.88;5006319;28;20052;-67
2020/12/02 07:00:39;;;;;;;55.30;23.20;;;0.10;77.40;;;-2.11;81.46;95984.53;5016639;28;20685;-67
2020/12/02 07:03:24;;;;;;;53.47;24.50;;;0.10;77.70;;;-2.12;81.73;95972.59;5019768;28;20095;-69
2020/12/02 07:06:09;;;;;;;55.65;25.75;;;0.10;77.60;;;-2.13;81.61;95980.44;5030492;28;20053;-68
2020/12/02 07:08:37;;;;;;;57.72;25.45;;;0.10;77.90;;;-2.16;82.15;95976.34;5010894;28;20050;-65
2020/12/02 07:11:29;;;;;;;52.50;23.00;;;0.10;77.80;;;-2.15;81.74;95980.56;5004091;28;20049;-68
2020/12/02 07:13:55;;;;;;;57.08;25.08;;;0.10;78.10;;;-2.15;82.33;95975.41;4988431;28;20042;-68
2020/12/02 07:16:23;;;;;;;56.38;24.45;;;0.20;78.00;;;-2.13;82.06;95980.44;5009930;28;20122;-65
2020/12/02 07:19:02;;;;;;;57.53;25.55;;;0.10;78.10;;;-2.13;82.33;95980.44;5037767;28;20044;-65
2020/12/02 07:21:52;;;;;;;54.47;25.25;;;0.20;78.30;;;-2.13;81.85;95981.25;5033483;28;20048;-68
2020/12/02 07:24:21;;;;;;;53.22;23.30;;;0.20;78.00;;;-2.11;82.06;95983.72;5005075;28;20048;-69
2020/12/02 07:26:49;;;;;;;55.80;24.30;;;0.20;78.10;;;-2.12;82.54;95977.75;4983239;28;20035;-66
2020/12/02 07:29:18;;;;;;;61.95;25.52;;;0.20;77.90;;;-2.13;82.43;95978.69;5022069;28;20068;-69
2020/12/02 07:31:44;;;;;;;55.10;24.33;;;0.20;78.10;;;-2.13;82.12;95981.25;5006649;28;20124;-70
2020/12/02 07:34:17;;;;;;;49.75;22.70;;;0.20;78.00;;;-2.15;81.92;95977.97;5014707;28;20096;-69
2020/12/02 07:36:42;;;;;;;54.42;24.00;;;0.10;78.10;;;-2.14;82.02;95983.94;5034336;28;20041;-68
2020/12/02 07:39:17;;;;;;;59.25;25.35;;;0.20;78.00;;;-2.14;81.73;95974.47;5018628;28;20472;-69
2020/12/02 07:42:07;;;;;;;57.63;26.42;;;0.20;77.80;;;-2.10;81.36;95975.03;4961989;28;20101;-69
2020/12/02 07:44:42;;;;;;;66.47;28.02;;;0.20;77.90;;;-2.10;81.78;95970.72;5019815;28;20061;-65
2020/12/02 07:47:11;;;;;;;57.10;26.58;;;0.20;77.50;;;-2.10;82.07;95965.56;4991495;28;20033;-68
2020/12/02 07:49:39;;;;;;;55.15;24.75;;;0.30;77.80;;;-2.06;81.87;95961.81;4991371;28;20129;-69
2020/12/02 07:52:19;;;;;;;55.53;26.63;;;0.30;77.60;;;-2.06;81.43;95966.97;4988336;28;20046;-69
2020/12/02 07:54:45;;;;;;;57.53;25.80;;;0.30;77.60;;;-2.04;81.73;95959.94;5003453;28;20026;-67
2020/12/02 07:57:15;;;;;;;58.25;26.38;;;0.30;77.50;;;-2.05;81.62;95963.44;4987950;28;20478;-70
2020/12/02 07:59:46;;;;;;;55.20;24.65;;;0.20;76.90;;;-2.05;81.87;95952.31;5023055;28;20041;-69
2020/12/02 08:02:16;;;;;;;53.92;26.67;;;0.30;77.10;;;-2.05;81.77;95948.00;4989824;28;20473;-65
2020/12/02 08:04:47;;;;;;;63.08;27.10;;;0.30;77.40;;;-2.05;81.64;95947.16;4971820;28;20046;-65
2020/12/02 08:07:14;;;;;;;58.60;27.13;;;0.30;77.60;;;-2.04;81.54;95954.78;5006501;28;20037;-65
2020/12/02 08:09:51;;;;;;;56.95;25.25;;;0.40;77.50;;;-2.05;81.32;95942.84;5002601;28;20048;-69
2020/12/02 08:12:24;;;;;;;56.83;25.00;;;0.30;76.90;;;-2.01;81.05;95949.44;5010530;28;20542;-68
2020/12/02 08:15:08;;;;;;;53.53;24.40;;;0.40;76.80;;;-1.98;81.05;95953.53;5025370;28;20037;-67
2020/12/02 08:17:34;;;;;;;57.13;26.02;;;0.40;76.80;;;-1.97;81.47;95948.25;4977900;28;20061;-67
2020/12/02 08:20:01;;;;;;;58.25;25.83;;;0.50;77.00;;;-1.97;81.80;95948.25;5026059;28;20098;-67
2020/12/02 08:22:49;;;;;;;56.90;26.50;;;0.50;76.80;;;-1.96;81.14;95941.34;4996036;28;20627;-68
2020/12/02 08:25:26;;;;;;;54.65;25.40;;;0.50;76.80;;;-1.91;81.79;95940.03;5008821;28;20048;-67
2020/12/02 08:27:59;;;;;;;52.28;24.45;;;0.60;76.80;;;-1.86;81.89;95925.03;5024959;28;20095;-66
2020/12/02 08:30:27;;;;;;;54.63;26.65;;;0.70;76.80;;;-1.83;81.62;95926.56;5028675;28;20116;-66
2020/12/02 08:33:13;;;;;;;53.45;25.90;;;0.70;76.70;;;-1.82;81.44;95927.38;4997424;28;20038;-69
2020/12/02 08:35:49;;;;;;;55.15;25.17;;;0.70;76.60;;;-1.80;80.83;95928.94;5009137;28;20036;-66
2020/12/02 08:38:29;;;;;;;53.15;25.83;;;0.70;75.60;;;-1.78;81.12;95931.41;4999015;28;20041;-67
2020/12/02 08:40:57;;;;;;;58.08;26.40;;;0.80;75.90;;;-1.78;81.01;95928.81;5031525;28;20036;-66
2020/12/02 08:43:37;;;;;;;56.65;27.23;;;0.70;76.00;;;-1.79;81.11;95928.00;5049909;28;20040;-66
2020/12/02 08:46:27;;;;;;;59.78;26.88;;;0.70;76.30;;;-1.78;81.20;95923.66;5005771;28;20685;-67
2020/12/02 08:49:00;;;;;;;58.75;25.75;;;0.70;75.90;;;-1.80;81.33;95920.38;4994978;28;20037;-67
2020/12/02 08:51:26;;;;;;;56.50;26.00;;;0.70;76.20;;;-1.80;81.11;95917.81;4996554;28;20512;-66
2020/12/02 08:53:52;;;;;;;54.40;25.63;;;0.60;76.20;;;-1.80;81.19;95925.53;5011417;28;20064;-67
2020/12/02 08:56:30;;;;;;;54.35;24.60;;;0.60;75.80;;;-1.82;80.54;95927.38;4966176;28;20050;-66
2020/12/02 08:58:55;;;;;;;50.30;23.98;;;0.60;75.30;;;-1.85;81.04;95934.41;4989130;28;20092;-67
2020/12/02 09:01:21;;;;;;;52.05;23.55;;;0.60;74.90;;;-1.84;80.90;95930.09;4990506;28;20031;-66
2020/12/02 09:03:47;;;;;;;51.55;24.33;;;0.60;74.80;;;-1.81;80.68;95931.59;4990891;28;20072;-67
2020/12/02 09:06:16;;;;;;;52.72;24.30;;;0.60;74.70;;;-1.80;80.43;95930.69;5008523;28;20076;-66
2020/12/02 09:08:42;;;;;;;52.35;25.95;;;0.70;74.90;;;-1.79;80.61;95933.16;4992982;28;20045;-68
2020/12/02 09:11:08;;;;;;;58.22;28.08;;;0.70;74.80;;;-1.78;81.16;95928.81;5025500;28;20037;-67
2020/12/02 09:13:34;;;;;;;63.50;29.20;;;0.60;75.10;;;-1.78;81.12;95928.81;5030120;28;20029;-70
2020/12/02 09:16:00;;;;;;;54.30;26.55;;;0.60;75.50;;;-1.77;81.02;95931.28;4967666;28;20046;-66
2020/12/02 09:18:25;;;;;;;52.00;25.27;;;0.60;75.60;;;-1.77;80.83;95915.00;5007783;28;20088;-66
2020/12/02 09:20:51;;;;;;;74.65;34.33;;;0.70;75.70;;;-1.76;80.94;95911.47;5011491;28;20041;-68
2020/12/02 09:23:17;;;;;;;57.35;27.98;;;0.70;75.40;;;-1.74;80.75;95912.16;4992334;28;20041;-65
2020/12/02 09:25:42;;;;;;;55.30;25.48;;;0.70;75.40;;;-1.73;81.06;95911.22;5025369;28;20060;-67
2020/12/02 09:28:08;;;;;;;49.92;23.90;;;0.70;75.30;;;-1.71;80.67;95917.91;5008107;28;20043;-63
2020/12/02 09:30:35;;;;;;;48.88;24.65;;;0.70;75.30;;;-1.73;80.23;95913.81;5011435;28;20037;-66
2020/12/02 09:33:01;;;;;;;49.63;24.50;;;0.60;73.70;;;-1.75;80.20;95918.25;5002232;28;20030;-69
2020/12/02 09:35:27;;;;;;;47.33;25.08;;;0.60;74.40;;;-1.75;80.24;95911.34;5009103;28;20076;-69
2020/12/02 09:37:53;;;;;;;49.10;24.38;;;0.60;74.20;;;-1.74;80.07;95915.56;5014956;28;20037;-66
2020/12/02 09:40:19;;;;;;;49.28;24.33;;;0.60;73.80;;;-1.74;79.62;95902.69;5011726;28;20124;-65
2020/12/02 09:43:14;;;;;;;53.65;25.10;;;0.70;73.70;;;-1.73;78.65;95912.03;5011414;28;20042;-66
2020/12/02 09:45:57;;;;;;;52.28;25.00;;;0.70;73.60;;;-1.75;78.50;95902.78;4986904;28;20042;-65
2020/12/02 09:48:23;;;;;;;55.20;25.77;;;0.60;73.50;;;-1.79;80.44;95896.25;4990850;28;20088;-66
2020/12/02 09:50:50;;;;;;;48.10;23.85;;;0.60;74.00;;;-1.79;79.99;95901.41;5008650;28;20060;-66
2020/12/02 09:53:21;;;;;;;47.20;24.08;;;0.60;73.90;;;-1.76;78.71;95899.41;5003397;28;20033;-70
2020/12/02 09:55:47;;;;;;;51.90;24.67;;;0.60;73.20;;;-1.73;79.48;95888.03;5012460;28;20030;-68
2020/12/02 09:58:13;;;;;;;51.15;24.25;;;0.70;73.10;;;-1.72;79.79;95887.09;5021547;28;20038;-69
2020/12/02 10:00:39;;;;;;;51.75;25.48;;;0.70;73.10;;;-1.71;79.42;95891.31;5010763;28;20851;-66
2020/12/02 10:03:43;;;;;;;53.50;25.45;;;0.70;72.50;;;-1.67;78.60;95884.97;5017081;28;20034;-66
2020/12/02 10:06:36;;;;;;;56.20;26.13;;;0.80;73.00;;;-1.65;77.92;95872.78;5041810;28;20384;-69
2020/12/02 10:09:33;;;;;;;52.47;25.58;;;0.80;72.50;;;-1.59;77.87;95880.00;4984179;28;20029;-69
2020/12/02 10:12:45;;;;;;;50.20;24.83;;;0.90;72.70;;;-1.60;77.73;95870.63;4984219;28;20481;-69
2020/12/02 10:15:41;;;;;;;51.92;24.42;;;0.90;72.20;;;-1.56;78.14;95872.06;5010122;28;20033;-69
2020/12/02 10:18:42;;;;;;;42.70;22.45;;;0.90;72.20;;;-1.54;77.33;95867.59;5015188;28;20040;-70
2020/12/02 10:21:58;;;;;;;49.30;24.35;;;0.80;71.90;;;-1.54;77.20;95870.19;5032556;28;20061;-65
2020/12/02 10:25:29;;;;;;;49.70;24.17;;;0.80;71.90;;;-1.50;77.23;95866.41;5030867;28;20037;-66
2020/12/02 10:28:06;;;;;;;45.20;22.10;;;0.90;71.90;;;-1.51;77.46;95851.88;4978739;28;20048;-69
2020/12/02 10:30:32;;;;;;;44.47;22.30;;;0.90;70.90;;;-1.53;78.61;95861.50;5011825;28;20120;-69
2020/12/02 10:33:14;;;;;;;42.25;21.40;;;1.00;71.20;;;-1.50;77.47;95856.09;5011290;28;20066;-68
2020/12/02 10:35:41;;;;;;;43.25;21.75;;;1.00;71.30;;;-1.46;78.18;95846.34;5031805;28;20420;-69